Time;durP1;ratioP1;P1;durP2;ratioP2;P2;SDS_P1;SDS_P2;PMS_P1;PMS_P2;Temp;Humidity;BMP_temperature;BMP_pressure;BME280_temperature;BME280_humidity;BME280_pressure;Samples;Min_cycle;Max_cycle;Signal;HPM_P1;HPM_P2
2023/03/20 00:01:59;;;;;;;200.43;173.02;;;;;;;5.86;100.00;100787.41;5001887;28;20042;-72
2023/03/20 00:04:25;;;;;;;208.32;178.68;;;;;;;6.50;100.00;100890.63;5006929;28;20117;-69
2023/03/20 00:06:50;;;;;;;197.57;171.48;;;;;;;6.46;100.00;100888.81;5007279;28;20069;-69
2023/03/20 00:09:16;;;;;;;155.93;109.22;;;;;;;5.65;100.00;100753.91;5006609;28;20049;-70
2023/03/20 00:11:54;;;;;;;206.23;178.13;;;;;;;5.75;100.00;100768.03;5000972;28;20053;-69
2023/03/20 00:14:23;;;;;;;146.93;107.55;;;;;;;5.66;100.00;100756.53;5000851;28;20049;-69
2023/03/20 00:16:48;;;;;;;169.65;141.13;;;;;;;6.31;100.00;100870.19;5002751;28;20038;-69
2023/03/20 00:19:17;;;;;;;171.23;145.35;;;;;;;6.31;100.00;100868.44;5004269;28;20034;-69
2023/03/20 00:21:45;;;;;;;172.88;144.57;;;;;;;5.63;100.00;100732.16;5007235;28;20059;-71
2023/03/20 00:24:11;;;;;;;172.07;150.48;;;;;;;6.47;100.00;100863.63;4997723;28;20042;-71
2023/03/20 00:26:37;;;;;;;167.82;133.50;;;;;;;6.13;100.00;100850.66;5003958;28;20061;-72
2023/03/20 00:29:04;;;;;;;159.93;131.88;;;;;;;6.36;100.00;100862.47;4998993;28;20047;-71
2023/03/20 00:31:32;;;;;;;152.18;129.73;;;;;;;5.41;100.00;100702.97;5007480;28;20034;-71
2023/03/20 00:34:02;;;;;;;113.38;72.53;;;;;;;5.87;100.00;100745.75;5001580;28;20064;-72
2023/03/20 00:36:28;;;;;;;153.50;125.20;;;;;;;6.41;100.00;100851.31;5006806;28;20081;-71
2023/03/20 00:38:57;;;;;;;183.60;150.80;;;;;;;6.34;100.00;100863.34;4997271;28;20407;-71
2023/03/20 00:41:31;;;;;;;168.52;133.63;;;;;;;5.68;100.00;100714.91;5004803;28;20050;-71
2023/03/20 00:44:01;;;;;;;;;;;;;;;6.38;100.00;100853.84;5001933;28;20419;-72
2023/03/20 00:46:28;;;;;;;107.05;67.90;;;;;;;6.40;100.00;100852.16;5005193;28;19921;-72
2023/03/20 00:48:54;;;;;;;143.80;115.25;;;;;;;5.68;100.00;100741.81;5002963;28;20088;-71
2023/03/20 00:51:20;;;;;;;161.75;119.45;;;;;;;6.40;100.00;100840.88;5004214;28;20050;-72
2023/03/20 00:53:45;;;;;;;134.48;106.43;;;;;;;5.60;100.00;100706.94;5006320;28;20061;-70
2023/03/20 00:56:39;;;;;;;104.88;69.63;;;;;;;6.25;100.00;100842.25;5000542;28;20920;-69
2023/03/20 00:59:06;;;;;;;87.75;56.13;;;;;;;6.34;100.00;100833.75;4997108;28;20058;-69
2023/03/20 01:01:32;;;;;;;141.38;114.78;;;;;;;5.07;100.00;100655.25;5009418;28;20101;-71
2023/03/20 01:03:59;;;;;;;141.55;112.28;;;;;;;5.62;100.00;100824.09;5004649;28;20219;-72
2023/03/20 01:06:24;;;;;;;127.78;101.82;;;;;;;5.51;100.00;100813.41;5004792;28;20046;-70
2023/03/20 01:08:50;;;;;;;107.20;72.85;;;;;;;6.25;100.00;100812.69;5005869;28;20053;-70
2023/03/20 01:11:22;;;;;;;132.45;103.43;;;;;;;5.83;100.00;100750.84;5001567;28;20076;-70
2023/03/20 01:13:48;;;;;;;85.97;58.28;;;;;;;5.59;100.00;100686.94;5004731;28;20135;-71
2023/03/20 01:16:20;;;;;;;101.13;78.80;;;;;;;5.59;100.00;100666.09;4999326;28;20490;-71
2023/03/20 01:18:46;;;;;;;99.38;70.25;;;;;;;6.42;100.00;100795.75;5000986;28;20042;-71
2023/03/20 01:21:11;;;;;;;104.78;71.05;;;;;;;5.68;100.00;100660.25;5001726;28;20080;-71
2023/03/20 01:23:37;;;;;;;127.07;98.32;;;;;;;5.63;100.00;100659.25;5002481;28;20045;-70
2023/03/20 01:26:02;;;;;;;144.07;111.88;;;;;;;6.26;100.00;100796.22;4997922;28;20054;-69
2023/03/20 01:28:30;;;;;;;102.38;67.05;;;;;;;6.23;100.00;100812.66;5003336;28;20087;-70
2023/03/20 01:30:55;;;;;;;113.93;63.85;;;;;;;6.22;100.00;100794.38;4997110;28;20058;-69
2023/03/20 01:33:24;;;;;;;110.63;74.80;;;;;;;5.47;100.00;100656.28;4998587;28;20053;-70
2023/03/20 01:35:50;;;;;;;87.30;60.10;;;;;;;5.16;100.00;100613.00;5001763;28;20048;-69
2023/03/20 01:38:24;;;;;;;288.13;214.15;;;;;;;6.18;100.00;100787.34;5001148;28;20046;-70
2023/03/20 01:40:53;;;;;;;111.85;88.03;;;;;;;5.43;100.00;100643.16;4998257;28;20501;-70
2023/03/20 01:43:20;;;;;;;108.60;82.75;;;;;;;5.47;100.00;100663.22;5004640;28;20103;-71
2023/03/20 01:45:55;;;;;;;71.70;47.53;;;;;;;6.14;100.00;100755.13;5002519;28;20064;-71
2023/03/20 01:48:24;;;;;;;107.60;80.88;;;;;;;6.11;100.00;100758.53;5001622;28;20042;-71
2023/03/20 01:50:50;;;;;;;74.07;49.08;;;;;;;5.86;100.00;100707.56;5002970;28;20046;-70
2023/03/20 01:53:27;;;;;;;63.03;45.90;;;;;;;6.19;100.00;100763.06;5003460;28;20046;-70
2023/03/20 01:55:55;;;;;;;111.65;75.93;;;;;;;5.71;100.00;100682.03;4999645;28;20037;-70
2023/03/20 01:58:30;;;;;;;99.45;74.20;;;;;;;6.14;100.00;100768.16;4997860;28;20037;-70
2023/03/20 02:00:56;;;;;;;94.22;71.82;;;;;;;5.00;100.00;100621.28;5003963;28;20053;-69
2023/03/20 02:03:23;;;;;;;110.25;70.68;;;;;;;5.09;100.00;100624.09;5000185;28;20041;-70
2023/03/20 02:05:49;;;;;;;64.63;46.17;;;;;;;5.84;100.00;100724.88;5001040;28;20741;-69
2023/03/20 02:08:29;;;;;;;62.05;40.22;;;;;;;5.86;100.00;100737.94;4998640;28;20135;-70
2023/03/20 02:10:58;;;;;;;92.78;70.65;;;;;;;5.99;100.00;100737.38;5000255;28;20064;-69
2023/03/20 02:13:26;;;;;;;67.55;45.20;;;;;;;5.36;100.00;100620.44;5000241;28;20037;-69
2023/03/20 02:15:55;;;;;;;65.75;43.92;;;;;;;6.16;100.00;100742.13;5001839;28;20038;-69
2023/03/20 02:18:20;;;;;;;82.38;64.00;;;;;;;5.35;100.00;100621.28;4997785;28;20042;-69
2023/03/20 02:21:08;;;;;;;89.50;69.47;;;;;;;5.35;100.00;100639.50;5004496;28;20049;-69
2023/03/20 02:24:11;;;;;;;97.28;73.38;;;;;;;5.96;100.00;100747.75;5001691;28;20485;-71
2023/03/20 02:26:48;;;;;;;60.40;39.63;;;;;;;5.50;100.00;100737.06;4999596;28;20058;-69
2023/03/20 02:30:06;;;;;;;56.08;37.92;;;;;;;5.78;100.00;100729.03;5002879;28;20116;-70
2023/03/20 02:32:50;;;;;;;56.83;35.30;;;;;;;5.86;100.00;100753.56;5003399;28;20050;-69
2023/03/20 02:35:57;;;;;;;86.40;59.85;;;;;;;5.44;100.00;100749.91;5005143;28;20060;-70
2023/03/20 02:38:44;;;;;;;71.38;38.45;;;;;;;5.56;100.00;100733.72;4996955;28;20185;-71
2023/03/20 02:41:28;;;;;;;60.45;35.47;;;;;;;5.62;100.00;100706.94;4996991;28;20053;-71
2023/03/20 02:44:32;;;;;;;52.85;36.72;;;;;;;5.92;100.00;100710.31;4994497;28;20076;-73
2023/03/20 02:47:09;;;;;;;61.58;39.47;;;;;;;5.83;100.00;100723.13;4997076;28;20060;-69
2023/03/20 02:49:37;;;;;;;85.07;60.25;;;;;;;4.87;100.00;100562.88;5006299;28;20065;-69
2023/03/20 02:52:15;;;;;;;48.30;34.55;;;;;;;5.59;100.00;100728.56;4997515;28;20049;-70
2023/03/20 02:54:49;;;;;;;73.50;51.40;;;;;;;5.53;100.00;100718.03;4999607;28;20451;-70
2023/03/20 02:57:15;;;;;;;61.58;35.10;;;;;;;5.28;100.00;100716.50;4994881;28;20144;-72
2023/03/20 02:59:47;;;;;;;47.45;31.08;;;;;;;5.18;100.00;100680.69;5001819;28;20046;-72
2023/03/20 03:02:20;;;;;;;63.88;38.65;;;;;;;5.14;100.00;100673.66;4999009;28;20050;-71
2023/03/20 03:05:00;;;;;;;68.60;46.60;;;;;;;4.49;100.00;100521.16;5002440;28;20038;-72
2023/03/20 03:07:31;;;;;;;68.10;43.42;;;;;;;4.00;100.00;100520.72;5012201;28;20088;-70
2023/03/20 03:10:11;;;;;;;69.88;42.58;;;;;;;4.85;100.00;100659.03;5001729;28;20050;-71
2023/03/20 03:12:42;;;;;;;79.40;57.42;;;;;;;4.71;100.00;100618.78;5000242;28;20054;-68
2023/03/20 03:15:21;;;;;;;77.43;61.55;;;;;;;3.83;100.00;100555.69;4998090;28;20049;-68
2023/03/20 03:17:48;;;;;;;55.22;31.65;;;;;;;3.74;100.00;100555.41;5002622;28;20054;-70
2023/03/20 03:20:21;;;;;;;63.75;33.78;;;;;;;4.45;100.00;100654.44;4999655;28;20112;-68
2023/03/20 03:22:47;;;;;;;54.67;32.00;;;;;;;4.26;100.00;100637.47;5001405;28;20533;-68
2023/03/20 03:25:13;;;;;;;62.13;30.52;;;;;;;3.55;100.00;100512.47;5003404;28;20080;-68
2023/03/20 03:27:50;;;;;;;51.80;32.60;;;;;;;4.01;100.00;100605.56;5000252;28;20050;-71
2023/03/20 03:30:27;;;;;;;49.17;34.15;;;;;;;3.35;100.00;100488.56;4995004;28;20136;-69
2023/03/20 03:33:19;;;;;;;53.55;34.22;;;;;;;4.52;100.00;100645.09;5000813;28;20060;-72
2023/03/20 03:35:47;;;;;;;51.20;32.20;;;;;;;4.23;100.00;100656.41;5001013;28;20107;-71
2023/03/20 03:38:30;;;;;;;62.08;36.22;;;;;;;4.30;100.00;100657.47;5000315;28;20050;-68
2023/03/20 03:41:04;;;;;;;46.75;29.63;;;;;;;4.08;100.00;100624.81;4996180;28;20057;-71
2023/03/20 03:43:40;;;;;;;52.47;32.25;;;;;;;3.86;100.00;100644.03;4998464;28;20153;-70
2023/03/20 03:46:32;;;;;;;56.67;32.10;;;;;;;4.00;100.00;100673.00;4997266;28;20062;-73
2023/03/20 03:48:59;;;;;;;46.22;28.67;;;;;;;3.97;100.00;100660.81;4998860;28;20085;-74
2023/03/20 03:51:29;;;;;;;43.75;30.65;;;;;;;3.01;100.00;100523.78;5000733;28;20160;-71
2023/03/20 03:54:01;;;;;;;50.00;32.40;;;;;;;3.10;100.00;100544.81;4996213;28;20058;-71
2023/03/20 03:56:31;;;;;;;53.30;31.27;;;;;;;2.96;100.00;100518.44;4990722;28;20160;-70
2023/03/20 03:59:02;;;;;;;50.67;31.67;;;;;;;3.99;100.00;100658.28;4998285;28;20057;-71
2023/03/20 04:01:31;;;;;;;47.42;30.48;;;;;;;3.26;100.00;100519.38;5001888;28;20212;-71
2023/03/20 04:04:02;;;;;;;53.95;35.38;;;;;;;4.16;100.00;100656.19;5004098;28;20041;-71
2023/03/20 04:06:28;;;;;;;56.60;31.42;;;;;;;3.85;100.00;100556.63;5004237;28;20058;-71
2023/03/20 04:08:54;;;;;;;53.10;33.95;;;;;;;4.53;100.00;100659.84;5002452;28;20042;-71
2023/03/20 04:11:23;;;;;;;54.42;33.50;;;;;;;3.71;100.00;100568.31;5003214;28;20121;-69
2023/03/20 04:13:50;;;;;;;46.40;34.45;;;;;;;4.49;100.00;100666.66;5003437;28;20041;-69
2023/03/20 04:16:17;;;;;;;55.33;33.95;;;;;;;4.61;100.00;100685.22;5000479;28;20049;-71
2023/03/20 04:18:44;;;;;;;41.15;29.75;;;;;;;4.64;100.00;100680.13;5000755;28;20046;-70
2023/03/20 04:21:09;;;;;;;46.88;31.38;;;;;;;4.59;100.00;100671.31;5003426;28;20085;-69
2023/03/20 04:23:35;;;;;;;47.53;32.88;;;;;;;4.67;100.00;100694.03;4999861;28;20046;-69
2023/03/20 04:26:01;;;;;;;51.55;31.45;;;;;;;4.50;100.00;100693.56;5002394;28;20062;-70
2023/03/20 04:28:27;;;;;;;44.17;32.00;;;;;;;4.62;100.00;100684.38;5000439;28;20042;-70
2023/03/20 04:30:59;;;;;;;48.78;30.55;;;;;;;3.79;100.00;100603.16;5001089;28;20509;-71
2023/03/20 04:33:26;;;;;;;46.75;31.30;;;;;;;4.15;100.00;100709.84;5003807;28;20682;-71
2023/03/20 04:35:51;;;;;;;50.65;30.63;;;;;;;4.39;100.00;100685.44;5007147;28;20053;-69
2023/03/20 04:38:18;;;;;;;51.85;31.20;;;;;;;4.14;100.00;100691.59;5002730;28;20485;-70
2023/03/20 04:40:45;;;;;;;56.50;32.78;;;;;;;3.75;100.00;100581.44;4999590;28;20487;-69
2023/03/20 04:43:11;;;;;;;54.38;31.10;;;;;;;3.58;100.00;100580.00;5004213;28;20097;-71
2023/03/20 04:45:37;;;;;;;53.60;32.85;;;;;;;3.65;100.00;100610.50;5007381;28;20084;-70
2023/03/20 04:48:03;;;;;;;51.33;30.73;;;;;;;4.57;100.00;100721.47;5002483;28;20045;-71
2023/03/20 04:50:28;;;;;;;67.03;38.55;;;;;;;3.17;100.00;100585.66;5002438;28;20186;-69
2023/03/20 04:52:54;;;;;;;93.72;53.35;;;;;;;3.87;100.00;100712.41;4998025;28;20052;-70
2023/03/20 04:55:21;;;;;;;63.38;40.33;;;;;;;3.11;100.00;100606.22;4998219;28;20065;-71
2023/03/20 04:57:46;;;;;;;60.17;36.35;;;;;;;3.67;100.00;100691.00;5003230;28;20092;-72
2023/03/20 05:00:13;;;;;;;46.45;33.35;;;;;;;3.04;100.00;100585.19;4999915;28;20053;-70
2023/03/20 05:02:38;;;;;;;55.83;31.15;;;;;;;3.54;100.00;100672.44;4996140;28;20045;-71
2023/03/20 05:05:05;;;;;;;54.80;32.53;;;;;;;3.67;100.00;100678.03;5000792;28;20050;-70
2023/03/20 05:07:31;;;;;;;69.10;30.23;;;;;;;3.77;100.00;100682.69;4998089;28;20148;-71
2023/03/20 05:09:57;;;;;;;61.15;33.53;;;;;;;3.87;100.00;100702.91;4998886;28;20359;-70
2023/03/20 05:12:23;;;;;;;55.13;32.85;;;;;;;3.89;100.00;100670.09;4998203;28;20057;-70
2023/03/20 05:14:48;;;;;;;53.15;32.17;;;;;;;3.95;100.00;100714.41;5003730;28;20045;-70
2023/03/20 05:17:14;;;;;;;49.97;34.25;;;;;;;3.42;100.00;100617.59;5000850;28;20076;-70
2023/03/20 05:19:41;;;;;;;57.58;33.65;;;;;;;3.91;100.00;100698.69;4998860;28;20026;-70
2023/03/20 05:22:07;;;;;;;68.07;30.27;;;;;;;3.89;100.00;100667.50;5003120;28;20058;-70
2023/03/20 05:24:32;;;;;;;57.78;28.85;;;;;;;3.41;100.00;100581.22;4998406;28;20084;-70
2023/03/20 05:26:58;;;;;;;46.85;29.33;;;;;;;4.21;100.00;100667.56;4998485;28;20102;-71
2023/03/20 05:29:23;;;;;;;74.28;33.08;;;;;;;4.57;100.00;100687.69;5003330;28;20395;-71
2023/03/20 05:31:49;;;;;;;53.95;34.47;;;;;;;4.79;100.00;100694.38;4995548;28;20076;-71
2023/03/20 05:34:14;;;;;;;47.78;32.53;;;;;;;4.24;100.00;100584.59;4998254;28;20033;-69
2023/03/20 05:36:40;;;;;;;58.15;32.08;;;;;;;4.66;100.00;100708.75;5003567;28;20038;-70
2023/03/20 05:39:06;;;;;;;51.80;31.42;;;;;;;5.28;100.00;100753.81;4999322;28;20046;-70
2023/03/20 05:41:31;;;;;;;54.88;34.30;;;;;;;4.78;100.00;100724.69;5000482;28;20050;-71
2023/03/20 05:43:57;;;;;;;66.60;35.08;;;;;;;4.79;100.00;100754.16;4999681;28;21550;-70
2023/03/20 05:46:22;;;;;;;44.58;28.75;;;;;;;4.92;100.00;100737.22;5005090;28;20487;-69
2023/03/20 05:48:48;;;;;;;51.35;32.75;;;;;;;5.17;100.00;100773.44;4996992;28;20517;-70
2023/03/20 05:51:13;;;;;;;51.05;33.80;;;;;;;5.06;100.00;100764.47;4997808;28;20042;-70
2023/03/20 05:53:39;;;;;;;61.70;34.40;;;;;;;4.71;100.00;100686.38;4999049;28;20053;-69
2023/03/20 05:56:05;;;;;;;52.65;33.95;;;;;;;5.17;100.00;100725.75;5000560;28;20072;-72
2023/03/20 05:58:31;;;;;;;55.72;33.15;;;;;;;4.63;100.00;100646.28;5002389;28;20045;-71
2023/03/20 06:00:57;;;;;;;47.00;32.55;;;;;;;5.23;100.00;100765.81;5003322;28;20718;-71
2023/03/20 06:03:23;;;;;;;56.95;32.95;;;;;;;5.66;100.00;100779.06;5004185;28;20054;-72
2023/03/20 06:05:48;;;;;;;51.95;32.65;;;;;;;5.00;100.00;100673.28;5000052;28;20524;-72
2023/03/20 06:08:14;;;;;;;57.72;33.47;;;;;;;4.89;100.00;100648.69;5005012;28;20050;-72
2023/03/20 06:10:40;;;;;;;57.67;35.50;;;;;;;5.06;100.00;100630.13;5001345;28;20033;-72
2023/03/20 06:13:06;;;;;;;58.38;34.78;;;;;;;5.46;100.00;100752.53;5000453;28;20125;-71
2023/03/20 06:15:31;;;;;;;55.88;33.33;;;;;;;5.06;100.00;100644.84;4999318;28;20077;-71
2023/03/20 06:17:57;;;;;;;59.40;32.90;;;;;;;6.22;100.00;100789.16;5003155;28;20045;-70
2023/03/20 06:20:23;;;;;;;53.58;33.45;;;;;;;6.03;100.00;100788.72;4998604;28;20394;-71
2023/03/20 06:22:49;;;;;;;59.42;34.05;;;;;;;5.78;100.00;100666.53;5002365;28;20049;-72
2023/03/20 06:25:14;;;;;;;52.00;30.98;;;;;;;6.45;100.00;100777.56;4999143;28;20049;-71
2023/03/20 06:27:40;;;;;;;56.45;35.80;;;;;;;6.62;100.00;100819.63;4998298;28;20050;-73
2023/03/20 06:30:06;;;;;;;59.47;38.33;;;;;;;5.96;100.00;100710.41;5013049;28;20054;-73
2023/03/20 06:32:32;;;;;;;61.65;34.70;;;;;;;5.84;100.00;100697.94;4988455;28;20065;-70
2023/03/20 06:34:57;;;;;;;66.13;52.10;;;;;;;6.40;100.00;100826.09;4995057;28;20148;-71
2023/03/20 06:37:23;;;;;;;56.00;35.50;;;;;;;5.70;100.00;100688.06;4998808;28;20037;-71
2023/03/20 06:39:48;;;;;;;69.35;39.38;;;;;;;5.47;100.00;100614.63;4992832;28;20553;-70
2023/03/20 06:42:15;;;;;;;76.47;53.50;;;;;;;6.34;100.00;100813.81;4985066;28;20757;-72
2023/03/20 06:44:41;;;;;;;84.13;57.50;;;;;;;5.70;100.00;100690.69;4996540;28;20605;-72
2023/03/20 06:47:06;;;;;;;56.83;37.30;;;;;;;6.51;100.00;100795.06;4991605;28;20073;-71
2023/03/20 06:49:32;;;;;;;60.00;36.00;;;;;;;6.15;100.00;100782.06;4993147;28;20473;-74
2023/03/20 06:51:58;;;;;;;56.97;37.33;;;;;;;6.53;100.00;100829.84;4993935;28;20054;-72
2023/03/20 06:54:24;;;;;;;75.22;56.90;;;;;;;6.53;100.00;100798.56;4998987;28;20046;-71
2023/03/20 06:56:50;;;;;;;85.38;58.40;;;;;;;5.85;100.00;100702.28;4996201;28;20042;-72
2023/03/20 06:59:16;;;;;;;75.07;56.00;;;;;;;6.00;100.00;100713.13;5001765;28;20073;-73
2023/03/20 07:01:42;;;;;;;56.63;35.35;;;;;;;6.64;100.00;100825.78;4995904;28;20109;-71
2023/03/20 07:04:07;;;;;;;57.22;38.75;;;;;;;6.58;100.00;100778.72;5000961;28;20043;-71
2023/03/20 07:06:33;;;;;;;85.47;58.45;;;;;;;7.27;100.00;100848.00;4996790;28;20057;-71
2023/03/20 07:09:00;;;;;;;83.38;53.58;;;;;;;7.14;100.00;100848.59;4988572;28;20060;-71
2023/03/20 07:11:26;;;;;;;88.93;56.05;;;;;;;6.58;100.00;100744.84;5002976;28;20049;-71
2023/03/20 07:13:51;;;;;;;109.30;62.15;;;;;;;7.16;100.00;100846.88;5000181;28;20030;-72
2023/03/20 07:16:16;;;;;;;98.68;65.55;;;;;;;6.40;100.00;100727.06;5000312;28;20025;-71
2023/03/20 07:18:42;;;;;;;96.78;62.38;;;;;;;7.24;100.00;100827.06;4991593;28;20050;-70
2023/03/20 07:21:07;;;;;;;83.78;58.10;;;;;;;7.66;100.00;100841.81;5002032;28;20045;-70
2023/03/20 07:23:33;;;;;;;86.90;60.38;;;;;;;7.94;100.00;100871.06;4997232;28;20057;-70
2023/03/20 07:25:59;;;;;;;95.28;57.65;;;;;;;7.78;100.00;100870.75;4999926;28;20062;-71
2023/03/20 07:28:25;;;;;;;85.28;56.97;;;;;;;7.36;100.00;100764.66;4998264;28;20493;-71
2023/03/20 07:30:51;;;;;;;87.85;56.00;;;;;;;7.87;100.00;100866.56;4996802;28;20103;-71
2023/03/20 07:33:17;;;;;;;72.70;56.08;;;;;;;7.65;100.00;100855.69;4985340;28;20446;-71
2023/03/20 07:35:42;;;;;;;83.32;54.40;;;;;;;8.17;100.00;100864.50;4989819;28;20054;-70
2023/03/20 07:38:08;;;;;;;102.57;53.13;;;;;;;8.13;100.00;100852.22;5006001;28;20409;-71
2023/03/20 07:40:33;;;;;;;90.10;51.65;;;;;;;8.41;100.00;100866.66;5007388;28;20129;-70
2023/03/20 07:43:00;;;;;;;81.25;54.90;;;;;;;8.46;100.00;100864.13;5003387;28;20065;-70
2023/03/20 07:45:25;;;;;;;87.55;55.20;;;;;;;8.54;100.00;100875.56;5000388;28;20149;-70
2023/03/20 07:47:51;;;;;;;88.03;54.13;;;;;;;8.21;100.00;100758.22;5003194;28;20140;-70
2023/03/20 07:50:16;;;;;;;92.95;53.88;;;;;;;9.04;100.00;100869.34;5007150;28;20085;-70
2023/03/20 07:52:50;;;;;;;84.45;55.55;;;;;;;8.48;100.00;100749.97;5005883;28;20041;-70
2023/03/20 07:55:15;;;;;;;;;;;;;;;9.45;100.00;100897.78;5006405;28;20028;-71
2023/03/20 07:57:41;;;;;;;90.65;57.58;;;;;;;8.62;100.00;100764.09;4993552;28;19925;-70
2023/03/20 08:00:07;;;;;;;104.22;55.45;;;;;;;9.09;100.00;100803.09;4999699;28;20506;-71
2023/03/20 08:02:33;;;;;;;71.30;53.38;;;;;;;8.97;100.00;100889.31;5005788;28;20096;-70
2023/03/20 08:04:59;;;;;;;65.68;51.17;;;;;;;9.27;100.00;100883.63;5004241;28;20072;-71
2023/03/20 08:07:24;;;;;;;65.40;50.53;;;;;;;8.90;100.00;100790.63;4998124;28;20033;-71
2023/03/20 08:09:51;;;;;;;69.18;50.47;;;;;;;8.78;100.00;100779.97;5000847;28;20056;-71
2023/03/20 08:12:17;;;;;;;73.97;51.10;;;;;;;9.46;100.00;100873.38;5004948;28;20045;-70
2023/03/20 08:14:43;;;;;;;78.05;53.28;;;;;;;9.46;100.00;100897.81;5004699;28;20057;-70
2023/03/20 08:17:08;;;;;;;78.20;51.50;;;;;;;9.44;100.00;100870.72;5006018;28;20034;-71
2023/03/20 08:19:35;;;;;;;79.75;54.47;;;;;;;9.06;100.00;100776.88;5005921;28;20159;-70
2023/03/20 08:22:00;;;;;;;76.97;55.38;;;;;;;9.90;100.00;100902.69;5005776;28;20053;-71
2023/03/20 08:24:26;;;;;;;73.75;51.92;;;;;;;9.72;100.00;100887.63;4999535;28;20520;-70
2023/03/20 08:26:51;;;;;;;66.13;53.40;;;;;;;9.63;100.00;100860.47;5005983;28;20042;-71
2023/03/20 08:29:18;;;;;;;75.85;49.72;;;;;;;10.16;100.00;100909.94;5007260;28;20125;-69
2023/03/20 08:31:44;;;;;;;67.65;52.53;;;;;;;10.46;100.00;100926.84;5003861;28;20033;-71
2023/03/20 08:34:10;;;;;;;72.03;48.88;;;;;;;9.81;100.00;100844.94;4987217;28;20034;-70
2023/03/20 08:36:35;;;;;;;66.82;49.83;;;;;;;10.15;100.00;100895.94;4998005;28;20051;-70
2023/03/20 08:39:01;;;;;;;77.97;49.63;;;;;;;10.10;100.00;100881.91;4998209;28;20046;-72
2023/03/20 08:41:26;;;;;;;67.40;43.60;;;;;;;10.01;100.00;100839.88;4996543;28;20035;-72
2023/03/20 08:43:52;;;;;;;74.82;46.88;;;;;;;10.68;100.00;100917.41;4988629;28;20074;-69
2023/03/20 08:46:17;;;;;;;65.13;47.22;;;;;;;10.78;100.00;100898.22;5003922;28;20038;-72
2023/03/20 08:48:43;;;;;;;77.72;46.05;;;;;;;10.19;100.00;100788.47;5001248;28;20663;-69
2023/03/20 08:51:08;;;;;;;56.13;42.05;;;;;;;11.20;100.00;100921.25;5003171;28;20054;-71
2023/03/20 08:53:34;;;;;;;61.58;40.58;;;;;;;11.44;100.00;100889.84;4994674;28;21730;-71
2023/03/20 08:56:00;;;;;;;59.50;42.20;;;;;;;10.65;100.00;100805.44;5003710;28;20653;-70
2023/03/20 08:58:26;;;;;;;66.00;45.35;;;;;;;11.46;100.00;100923.13;5001734;28;20045;-70
2023/03/20 09:00:52;;;;;;;62.28;41.88;;;;;;;11.85;100.00;100926.81;5001354;28;20050;-71
2023/03/20 09:03:19;;;;;;;59.80;41.53;;;;;;;12.11;100.00;100939.19;5004472;28;20093;-70
2023/03/20 09:05:51;;;;;;;40.35;27.83;;;;;;;11.84;100.00;100896.09;4998792;28;20045;-70
2023/03/20 09:08:17;;;;;;;35.45;26.63;;;;;;;12.35;100.00;100922.53;4999172;28;20042;-71
2023/03/20 09:10:45;;;;;;;33.85;24.02;;;;;;;12.11;100.00;100795.38;5006902;28;20423;-72
2023/03/20 09:13:11;;;;;;;39.95;26.70;;;;;;;12.19;100.00;100840.94;5017843;28;20501;-71
2023/03/20 09:15:36;;;;;;;34.53;23.83;;;;;;;12.98;100.00;100902.31;5000737;28;20100;-70
2023/03/20 09:18:02;;;;;;;33.15;24.30;;;;;;;13.06;100.00;100871.56;5005097;28;20486;-70
2023/03/20 09:20:27;;;;;;;45.45;26.60;;;;;;;12.81;100.00;100828.63;4998006;28;23352;-70
2023/03/20 09:22:53;;;;;;;63.70;31.75;;;;;;;12.89;100.00;100808.38;5003399;28;20397;-70
2023/03/20 09:25:18;;;;;;;42.47;28.50;;;;;;;13.77;100.00;100918.78;5004248;28;20580;-70
2023/03/20 09:27:44;;;;;;;36.42;29.08;;;;;;;13.00;100.00;100833.84;5002670;28;20049;-71
2023/03/20 09:30:11;;;;;;;45.78;28.98;;;;;;;13.07;100.00;100818.00;4996794;28;20066;-71
2023/03/20 09:32:36;;;;;;;38.10;27.67;;;;;;;12.18;100.00;100789.22;5003500;28;20054;-70
2023/03/20 09:35:02;;;;;;;62.08;31.55;;;;;;;13.11;100.00;100908.44;4999484;28;20089;-71
2023/03/20 09:37:28;;;;;;;49.00;28.08;;;;;;;13.65;100.00;100910.91;4999408;28;20469;-71
2023/03/20 09:39:54;;;;;;;45.33;26.30;;;;;;;13.30;100.00;100811.78;5002183;28;20053;-73
2023/03/20 09:42:31;;;;;;;50.33;25.70;;;;;;;13.88;100.00;100910.78;5000402;28;20054;-71
2023/03/20 09:45:14;;;;;;;31.02;24.98;;;;;;;14.02;100.00;100900.16;4994822;28;20073;-71
2023/03/20 09:47:52;;;;;;;33.88;23.80;;;;;;;13.89;100.00;100894.97;4999381;28;20228;-73
2023/03/20 09:50:39;;;;;;;32.25;25.00;;;;;;;13.83;100.00;100881.78;4999453;28;20517;-71
2023/03/20 09:53:35;;;;;;;39.38;26.70;;;;;;;14.40;97.32;100888.44;5002292;28;20137;-71
2023/03/20 09:56:00;;;;;;;35.35;21.98;;;;;;;14.42;97.08;100887.56;5015360;28;20054;-71
2023/03/20 09:58:33;;;;;;;34.80;23.23;;;;;;;14.37;98.84;100862.94;5003114;28;20084;-70
2023/03/20 10:01:01;;;;;;;30.98;21.67;;;;;;;14.48;93.06;100849.66;5006413;28;20536;-71
2023/03/20 10:03:42;;;;;;;34.63;23.13;;;;;;;14.77;90.78;100870.53;5003117;28;20076;-71
2023/03/20 10:06:15;;;;;;;31.65;21.70;;;;;;;13.91;88.43;100790.31;5003696;28;20053;-71
2023/03/20 10:08:42;;;;;;;34.88;25.55;;;;;;;13.84;90.77;100870.38;5006069;28;20136;-72
2023/03/20 10:11:45;;;;;;;28.40;17.73;;;;;;;13.70;87.14;100867.81;5006343;28;20459;-70
2023/03/20 10:14:43;;;;;;;30.63;21.83;;;;;;;14.11;88.49;100863.16;5003004;28;20044;-71
2023/03/20 10:17:26;;;;;;;36.38;21.40;;;;;;;14.69;86.27;100853.91;4989045;28;20042;-71
2023/03/20 10:20:10;;;;;;;36.67;26.03;;;;;;;15.41;86.69;100850.44;5001013;28;20069;-71
2023/03/20 10:22:44;;;;;;;33.50;24.60;;;;;;;14.46;80.59;100744.03;5000960;28;20176;-70
2023/03/20 10:25:31;;;;;;;29.48;21.67;;;;;;;14.62;81.34;100707.81;5004669;28;20127;-70
2023/03/20 10:27:57;;;;;;;34.00;22.45;;;;;;;15.33;83.41;100833.78;5000947;28;20406;-70
2023/03/20 10:30:37;;;;;;;29.08;22.63;;;;;;;15.12;84.21;100837.56;5001870;28;20148;-69
2023/03/20 10:33:25;;;;;;;30.52;18.58;;;;;;;15.44;84.59;100831.00;5002704;28;20545;-70
2023/03/20 10:36:14;;;;;;;29.85;19.13;;;;;;;15.14;76.96;100746.78;5002108;28;20062;-70
2023/03/20 10:38:52;;;;;;;42.42;17.35;;;;;;;15.95;73.13;100841.78;4997492;28;20100;-70
2023/03/20 10:41:27;;;;;;;21.00;16.65;;;;;;;14.19;74.37;100710.91;5002150;28;20084;-68
2023/03/20 10:43:56;;;;;;;19.65;15.23;;;;;;;15.19;67.39;100804.88;4997412;28;20041;-70
2023/03/20 10:46:32;;;;;;;16.67;11.80;;;;;;;15.96;67.38;100737.66;4997974;28;20030;-72
2023/03/20 10:49:00;;;;;;;20.02;15.63;;;;;;;15.88;64.27;100826.91;4997757;28;20045;-72
2023/03/20 10:51:37;;;;;;;20.15;14.05;;;;;;;16.86;63.14;100809.34;4993368;28;20053;-71
2023/03/20 10:54:14;;;;;;;63.88;17.90;;;;;;;17.28;63.04;100809.38;5000849;28;20050;-70
2023/03/20 10:56:45;;;;;;;19.73;14.10;;;;;;;16.76;62.28;100691.09;4994767;28;20086;-69
2023/03/20 10:59:42;;;;;;;25.00;13.93;;;;;;;17.27;61.89;100818.22;4999606;28;20666;-70
2023/03/20 11:02:12;;;;;;;33.63;14.50;;;;;;;16.73;59.40;100701.78;4995835;28;20494;-71
2023/03/20 11:04:38;;;;;;;26.75;15.70;;;;;;;17.20;57.35;100706.06;4997311;28;20045;-71
2023/03/20 11:07:06;;;;;;;22.58;14.68;;;;;;;17.96;55.18;100800.78;5003675;28;20038;-70
2023/03/20 11:09:33;;;;;;;28.58;16.95;;;;;;;17.66;54.89;100802.34;5000191;28;20050;-71
2023/03/20 11:12:01;;;;;;;21.33;15.45;;;;;;;17.70;54.82;100794.28;5000192;28;20042;-71
2023/03/20 11:14:37;;;;;;;18.85;14.65;;;;;;;16.18;55.19;100678.13;4999570;28;20046;-71
2023/03/20 11:17:05;;;;;;;27.38;15.98;;;;;;;16.24;57.95;100690.38;4995226;28;20141;-70
2023/03/20 11:19:35;;;;;;;22.45;16.23;;;;;;;17.57;54.92;100782.19;4986568;28;20041;-70